sensor_id;sensor_type;location;lat;lon;timestamp;P1;P2;P0
74419;PMS5003;62855;50.718;-2.460;2022-08-14T00:00:51;17;16;
74419;PMS5003;62855;50.718;-2.460;2022-08-14T00:02:12;17;16;
74419;PMS5003;62855;50.718;-2.460;2022-08-14T00:03:32;16;16;
74419;PMS5003;62855;50.718;-2.460;2022-08-14T00:04:53;16;16;
74419;PMS5003;62855;50.718;-2.460;2022-08-14T00:06:14;15;15;
74419;PMS5003;62855;50.718;-2.460;2022-08-14T00:07:35;15;15;
74419;PMS5003;62855;50.718;-2.460;2022-08-14T00:08:37;15;15;
74419;PMS5003;62855;50.718;-2.460;2022-08-14T00:09:57;15;15;
74419;PMS5003;62855;50.718;-2.460;2022-08-14T00:11:18;15;15;
74419;PMS5003;62855;50.718;-2.460;2022-08-14T00:12:40;15;15;
74419;PMS5003;62855;50.718;-2.460;2022-08-14T00:13:44;15;15;
74419;PMS5003;62855;50.718;-2.460;2022-08-14T00:15:08;14;14;
74419;PMS5003;62855;50.718;-2.460;2022-08-14T00:16:13;14;14;
74419;PMS5003;62855;50.718;-2.460;2022-08-14T00:17:34;14;14;
74419;PMS5003;62855;50.718;-2.460;2022-08-14T00:18:54;14;14;
74419;PMS5003;62855;50.718;-2.460;2022-08-14T00:20:16;14;14;
74419;PMS5003;62855;50.718;-2.460;2022-08-14T00:21:18;14;14;
74419;PMS5003;62855;50.718;-2.460;2022-08-14T00:22:39;14;14;
74419;PMS5003;62855;50.718;-2.460;2022-08-14T00:23:59;14;14;
74419;PMS5003;62855;50.718;-2.460;2022-08-14T00:25:20;13;13;
74419;PMS5003;62855;50.718;-2.460;2022-08-14T00:26:41;13;13;
74419;PMS5003;62855;50.718;-2.460;2022-08-14T00:28:02;13;13;
74419;PMS5003;62855;50.718;-2.460;2022-08-14T00:29:03;13;13;
74419;PMS5003;62855;50.718;-2.460;2022-08-14T00:30:09;13;13;
74419;PMS5003;62855;50.718;-2.460;2022-08-14T00:31:12;13;13;
74419;PMS5003;62855;50.718;-2.460;2022-08-14T00:32:33;13;13;
74419;PMS5003;62855;50.718;-2.460;2022-08-14T00:33:54;13;13;
74419;PMS5003;62855;50.718;-2.460;2022-08-14T00:35:14;13;13;
74419;PMS5003;62855;50.718;-2.460;2022-08-14T00:36:35;13;13;
74419;PMS5003;62855;50.718;-2.460;2022-08-14T00:37:56;13;13;
74419;PMS5003;62855;50.718;-2.460;2022-08-14T00:38:57;13;13;
74419;PMS5003;62855;50.718;-2.460;2022-08-14T00:40:18;13;13;
74419;PMS5003;62855;50.718;-2.460;2022-08-14T00:41:19;13;13;
74419;PMS5003;62855;50.718;-2.460;2022-08-14T00:42:40;13;13;
74419;PMS5003;62855;50.718;-2.460;2022-08-14T00:43:43;13;13;
74419;PMS5003;62855;50.718;-2.460;2022-08-14T00:44:44;13;13;
74419;PMS5003;62855;50.718;-2.460;2022-08-14T00:46:07;14;14;
74419;PMS5003;62855;50.718;-2.460;2022-08-14T00:47:09;14;14;
74419;PMS5003;62855;50.718;-2.460;2022-08-14T00:48:13;13;13;
74419;PMS5003;62855;50.718;-2.460;2022-08-14T00:49:34;12;12;
74419;PMS5003;62855;50.718;-2.460;2022-08-14T00:50:54;12;12;
74419;PMS5003;62855;50.718;-2.460;2022-08-14T00:52:15;12;12;
74419;PMS5003;62855;50.718;-2.460;2022-08-14T00:53:36;12;12;
74419;PMS5003;62855;50.718;-2.460;2022-08-14T00:54:38;12;12;
74419;PMS5003;62855;50.718;-2.460;2022-08-14T00:55:58;12;12;
74419;PMS5003;62855;50.718;-2.460;2022-08-14T00:57:20;14;13;
74419;PMS5003;62855;50.718;-2.460;2022-08-14T00:58:23;14;13;
74419;PMS5003;62855;50.718;-2.460;2022-08-14T00:59:44;14;13;
74419;PMS5003;62855;50.718;-2.460;2022-08-14T01:00:48;13;12;
74419;PMS5003;62855;50.718;-2.460;2022-08-14T01:02:09;13;12;
74419;PMS5003;62855;50.718;-2.460;2022-08-14T01:03:11;13;12;
74419;PMS5003;62855;50.718;-2.460;2022-08-14T01:04:32;13;12;
74419;PMS5003;62855;50.718;-2.460;2022-08-14T01:05:33;13;12;
74419;PMS5003;62855;50.718;-2.460;2022-08-14T01:06:34;12;11;
74419;PMS5003;62855;50.718;-2.460;2022-08-14T01:07:55;13;12;
74419;PMS5003;62855;50.718;-2.460;2022-08-14T01:09:16;13;13;
74419;PMS5003;62855;50.718;-2.460;2022-08-14T01:10:17;13;13;
74419;PMS5003;62855;50.718;-2.460;2022-08-14T01:11:18;13;13;
74419;PMS5003;62855;50.718;-2.460;2022-08-14T01:12:39;13;12;
74419;PMS5003;62855;50.718;-2.460;2022-08-14T01:14:00;12;11;
74419;PMS5003;62855;50.718;-2.460;2022-08-14T01:15:01;12;11;
74419;PMS5003;62855;50.718;-2.460;2022-08-14T01:16:04;12;11;
74419;PMS5003;62855;50.718;-2.460;2022-08-14T01:17:11;13;12;
74419;PMS5003;62855;50.718;-2.460;2022-08-14T01:18:12;13;13;
74419;PMS5003;62855;50.718;-2.460;2022-08-14T01:19:13;13;13;
74419;PMS5003;62855;50.718;-2.460;2022-08-14T01:20:14;13;13;
74419;PMS5003;62855;50.718;-2.460;2022-08-14T01:22:36;13;13;
74419;PMS5003;62855;50.718;-2.460;2022-08-14T01:23:57;13;13;
74419;PMS5003;62855;50.718;-2.460;2022-08-14T01:25:18;13;12;
74419;PMS5003;62855;50.718;-2.460;2022-08-14T01:26:38;13;12;
74419;PMS5003;62855;50.718;-2.460;2022-08-14T01:27:59;13;13;
74419;PMS5003;62855;50.718;-2.460;2022-08-14T01:29:20;13;13;
74419;PMS5003;62855;50.718;-2.460;2022-08-14T01:30:24;13;13;
74419;PMS5003;62855;50.718;-2.460;2022-08-14T01:31:28;13;13;
74419;PMS5003;62855;50.718;-2.460;2022-08-14T01:32:31;13;13;
74419;PMS5003;62855;50.718;-2.460;2022-08-14T01:33:32;13;13;
74419;PMS5003;62855;50.718;-2.460;2022-08-14T01:34:33;14;14;
74419;PMS5003;62855;50.718;-2.460;2022-08-14T01:35:54;13;13;
74419;PMS5003;62855;50.718;-2.460;2022-08-14T01:36:55;13;13;
74419;PMS5003;62855;50.718;-2.460;2022-08-14T01:38:15;13;13;
74419;PMS5003;62855;50.718;-2.460;2022-08-14T01:39:36;14;14;
74419;PMS5003;62855;50.718;-2.460;2022-08-14T01:40:57;14;14;
74419;PMS5003;62855;50.718;-2.460;2022-08-14T01:41:59;14;14;
74419;PMS5003;62855;50.718;-2.460;2022-08-14T01:43:20;13;13;
74419;PMS5003;62855;50.718;-2.460;2022-08-14T01:44:40;13;13;
74419;PMS5003;62855;50.718;-2.460;2022-08-14T01:45:42;13;13;
74419;PMS5003;62855;50.718;-2.460;2022-08-14T01:46:43;12;12;
74419;PMS5003;62855;50.718;-2.460;2022-08-14T01:48:04;12;12;
74419;PMS5003;62855;50.718;-2.460;2022-08-14T01:49:25;13;13;
74419;PMS5003;62855;50.718;-2.460;2022-08-14T01:50:46;13;13;
74419;PMS5003;62855;50.718;-2.460;2022-08-14T01:52:07;12;12;
74419;PMS5003;62855;50.718;-2.460;2022-08-14T01:53:27;12;12;
74419;PMS5003;62855;50.718;-2.460;2022-08-14T01:54:48;12;12;
74419;PMS5003;62855;50.718;-2.460;2022-08-14T01:56:09;12;12;
74419;PMS5003;62855;50.718;-2.460;2022-08-14T01:57:10;12;12;
74419;PMS5003;62855;50.718;-2.460;2022-08-14T01:58:31;11;11;
74419;PMS5003;62855;50.718;-2.460;2022-08-14T01:59:52;11;11;
74419;PMS5003;62855;50.718;-2.460;2022-08-14T02:01:00;11;11;
74419;PMS5003;62855;50.718;-2.460;2022-08-14T02:02:21;11;11;
74419;PMS5003;62855;50.718;-2.460;2022-08-14T02:03:41;11;11;
74419;PMS5003;62855;50.718;-2.460;2022-08-14T02:04:42;11;11;
74419;PMS5003;62855;50.718;-2.460;2022-08-14T02:06:03;11;11;
74419;PMS5003;62855;50.718;-2.460;2022-08-14T02:07:24;11;11;
74419;PMS5003;62855;50.718;-2.460;2022-08-14T02:08:45;11;11;
74419;PMS5003;62855;50.718;-2.460;2022-08-14T02:10:06;12;11;
74419;PMS5003;62855;50.718;-2.460;2022-08-14T02:11:08;12;11;
74419;PMS5003;62855;50.718;-2.460;2022-08-14T02:12:10;12;11;
74419;PMS5003;62855;50.718;-2.460;2022-08-14T02:13:31;11;11;
74419;PMS5003;62855;50.718;-2.460;2022-08-14T02:14:51;11;11;
74419;PMS5003;62855;50.718;-2.460;2022-08-14T02:16:13;11;11;
74419;PMS5003;62855;50.718;-2.460;2022-08-14T02:17:16;11;11;
74419;PMS5003;62855;50.718;-2.460;2022-08-14T02:18:37;11;11;
74419;PMS5003;62855;50.718;-2.460;2022-08-14T02:19:38;12;12;
74419;PMS5003;62855;50.718;-2.460;2022-08-14T02:20:59;12;12;
74419;PMS5003;62855;50.718;-2.460;2022-08-14T02:22:20;13;12;
74419;PMS5003;62855;50.718;-2.460;2022-08-14T02:23:40;13;12;
74419;PMS5003;62855;50.718;-2.460;2022-08-14T02:25:01;13;13;
74419;PMS5003;62855;50.718;-2.460;2022-08-14T02:26:02;13;13;
74419;PMS5003;62855;50.718;-2.460;2022-08-14T02:27:14;13;13;
74419;PMS5003;62855;50.718;-2.460;2022-08-14T02:28:35;14;14;
74419;PMS5003;62855;50.718;-2.460;2022-08-14T02:29:55;14;14;
74419;PMS5003;62855;50.718;-2.460;2022-08-14T02:31:01;14;14;
74419;PMS5003;62855;50.718;-2.460;2022-08-14T02:32:21;14;14;
74419;PMS5003;62855;50.718;-2.460;2022-08-14T02:33:42;14;14;
74419;PMS5003;62855;50.718;-2.460;2022-08-14T02:34:43;14;13;
74419;PMS5003;62855;50.718;-2.460;2022-08-14T02:36:04;14;13;
74419;PMS5003;62855;50.718;-2.460;2022-08-14T02:37:24;14;14;
74419;PMS5003;62855;50.718;-2.460;2022-08-14T02:38:45;14;14;
74419;PMS5003;62855;50.718;-2.460;2022-08-14T02:40:06;13;13;
74419;PMS5003;62855;50.718;-2.460;2022-08-14T02:41:08;13;13;
74419;PMS5003;62855;50.718;-2.460;2022-08-14T02:42:11;13;13;
74419;PMS5003;62855;50.718;-2.460;2022-08-14T02:43:14;13;13;
74419;PMS5003;62855;50.718;-2.460;2022-08-14T02:44:35;12;12;
74419;PMS5003;62855;50.718;-2.460;2022-08-14T02:45:55;12;12;
74419;PMS5003;62855;50.718;-2.460;2022-08-14T02:47:16;13;13;
74419;PMS5003;62855;50.718;-2.460;2022-08-14T02:48:17;14;14;
74419;PMS5003;62855;50.718;-2.460;2022-08-14T02:49:38;13;13;
74419;PMS5003;62855;50.718;-2.460;2022-08-14T02:50:59;13;13;
74419;PMS5003;62855;50.718;-2.460;2022-08-14T02:52:20;13;13;
74419;PMS5003;62855;50.718;-2.460;2022-08-14T02:53:21;13;13;
74419;PMS5003;62855;50.718;-2.460;2022-08-14T02:54:41;13;13;
74419;PMS5003;62855;50.718;-2.460;2022-08-14T02:56:03;14;14;
74419;PMS5003;62855;50.718;-2.460;2022-08-14T02:57:04;14;14;
74419;PMS5003;62855;50.718;-2.460;2022-08-14T02:58:05;13;13;
74419;PMS5003;62855;50.718;-2.460;2022-08-14T02:59:07;13;13;
74419;PMS5003;62855;50.718;-2.460;2022-08-14T03:00:13;13;13;
74419;PMS5003;62855;50.718;-2.460;2022-08-14T03:01:15;16;15;
74419;PMS5003;62855;50.718;-2.460;2022-08-14T03:02:17;16;15;
74419;PMS5003;62855;50.718;-2.460;2022-08-14T03:03:38;16;15;
74419;PMS5003;62855;50.718;-2.460;2022-08-14T03:04:39;16;16;
74419;PMS5003;62855;50.718;-2.460;2022-08-14T03:05:59;16;16;
74419;PMS5003;62855;50.718;-2.460;2022-08-14T03:07:20;16;16;
74419;PMS5003;62855;50.718;-2.460;2022-08-14T03:08:41;17;16;
74419;PMS5003;62855;50.718;-2.460;2022-08-14T03:09:42;16;15;
74419;PMS5003;62855;50.718;-2.460;2022-08-14T03:11:04;17;16;
74419;PMS5003;62855;50.718;-2.460;2022-08-14T03:13:35;18;17;
74419;PMS5003;62855;50.718;-2.460;2022-08-14T03:14:38;18;17;
74419;PMS5003;62855;50.718;-2.460;2022-08-14T03:15:58;18;17;
74419;PMS5003;62855;50.718;-2.460;2022-08-14T03:17:19;17;16;
74419;PMS5003;62855;50.718;-2.460;2022-08-14T03:18:41;17;16;
74419;PMS5003;62855;50.718;-2.460;2022-08-14T03:19:43;17;16;
74419;PMS5003;62855;50.718;-2.460;2022-08-14T03:21:04;17;17;
74419;PMS5003;62855;50.718;-2.460;2022-08-14T03:22:06;17;17;
74419;PMS5003;62855;50.718;-2.460;2022-08-14T03:23:27;17;16;
74419;PMS5003;62855;50.718;-2.460;2022-08-14T03:24:48;17;16;
74419;PMS5003;62855;50.718;-2.460;2022-08-14T03:26:09;17;15;
74419;PMS5003;62855;50.718;-2.460;2022-08-14T03:27:11;17;15;
74419;PMS5003;62855;50.718;-2.460;2022-08-14T03:28:32;17;15;
74419;PMS5003;62855;50.718;-2.460;2022-08-14T03:29:52;16;14;
74419;PMS5003;62855;50.718;-2.460;2022-08-14T03:30:57;16;14;
74419;PMS5003;62855;50.718;-2.460;2022-08-14T03:32:18;15;14;
74419;PMS5003;62855;50.718;-2.460;2022-08-14T03:33:38;15;14;
74419;PMS5003;62855;50.718;-2.460;2022-08-14T03:34:43;15;14;
74419;PMS5003;62855;50.718;-2.460;2022-08-14T03:36:04;16;14;
74419;PMS5003;62855;50.718;-2.460;2022-08-14T03:37:05;16;14;
74419;PMS5003;62855;50.718;-2.460;2022-08-14T03:38:26;16;14;
74419;PMS5003;62855;50.718;-2.460;2022-08-14T03:39:47;16;14;
74419;PMS5003;62855;50.718;-2.460;2022-08-14T03:41:08;15;14;
74419;PMS5003;62855;50.718;-2.460;2022-08-14T03:42:09;15;14;
74419;PMS5003;62855;50.718;-2.460;2022-08-14T03:43:29;15;14;
74419;PMS5003;62855;50.718;-2.460;2022-08-14T03:44:50;15;14;
74419;PMS5003;62855;50.718;-2.460;2022-08-14T03:46:11;15;14;
74419;PMS5003;62855;50.718;-2.460;2022-08-14T03:47:12;15;14;
74419;PMS5003;62855;50.718;-2.460;2022-08-14T03:48:33;15;14;
74419;PMS5003;62855;50.718;-2.460;2022-08-14T03:49:53;15;14;
74419;PMS5003;62855;50.718;-2.460;2022-08-14T03:51:14;15;14;
74419;PMS5003;62855;50.718;-2.460;2022-08-14T03:52:35;15;14;
74419;PMS5003;62855;50.718;-2.460;2022-08-14T03:53:37;15;14;
74419;PMS5003;62855;50.718;-2.460;2022-08-14T03:54:39;15;14;
74419;PMS5003;62855;50.718;-2.460;2022-08-14T03:55:59;15;14;
74419;PMS5003;62855;50.718;-2.460;2022-08-14T03:57:20;15;15;
74419;PMS5003;62855;50.718;-2.460;2022-08-14T03:58:41;15;15;
74419;PMS5003;62855;50.718;-2.460;2022-08-14T03:59:43;15;15;
74419;PMS5003;62855;50.718;-2.460;2022-08-14T04:00:48;15;14;
74419;PMS5003;62855;50.718;-2.460;2022-08-14T04:01:48;15;14;
74419;PMS5003;62855;50.718;-2.460;2022-08-14T04:03:09;14;14;
74419;PMS5003;62855;50.718;-2.460;2022-08-14T04:04:30;14;14;
74419;PMS5003;62855;50.718;-2.460;2022-08-14T04:05:32;14;14;
74419;PMS5003;62855;50.718;-2.460;2022-08-14T04:06:33;13;13;
74419;PMS5003;62855;50.718;-2.460;2022-08-14T04:07:36;13;13;
74419;PMS5003;62855;50.718;-2.460;2022-08-14T04:08:56;13;13;
74419;PMS5003;62855;50.718;-2.460;2022-08-14T04:10:17;13;13;
74419;PMS5003;62855;50.718;-2.460;2022-08-14T04:11:37;13;13;
74419;PMS5003;62855;50.718;-2.460;2022-08-14T04:12:58;13;13;
74419;PMS5003;62855;50.718;-2.460;2022-08-14T04:13:59;13;13;
74419;PMS5003;62855;50.718;-2.460;2022-08-14T04:15:20;13;13;
74419;PMS5003;62855;50.718;-2.460;2022-08-14T04:16:41;13;13;
74419;PMS5003;62855;50.718;-2.460;2022-08-14T04:18:02;13;13;
74419;PMS5003;62855;50.718;-2.460;2022-08-14T04:19:03;14;14;
74419;PMS5003;62855;50.718;-2.460;2022-08-14T04:20:24;14;14;
74419;PMS5003;62855;50.718;-2.460;2022-08-14T04:21:44;14;14;
74419;PMS5003;62855;50.718;-2.460;2022-08-14T04:23:06;14;14;
74419;PMS5003;62855;50.718;-2.460;2022-08-14T04:24:07;14;14;
74419;PMS5003;62855;50.718;-2.460;2022-08-14T04:25:28;15;15;
74419;PMS5003;62855;50.718;-2.460;2022-08-14T04:26:48;15;15;
74419;PMS5003;62855;50.718;-2.460;2022-08-14T04:28:09;15;14;
74419;PMS5003;62855;50.718;-2.460;2022-08-14T04:29:30;15;14;
74419;PMS5003;62855;50.718;-2.460;2022-08-14T04:30:33;15;14;
74419;PMS5003;62855;50.718;-2.460;2022-08-14T04:31:35;16;15;
74419;PMS5003;62855;50.718;-2.460;2022-08-14T04:32:56;16;15;
74419;PMS5003;62855;50.718;-2.460;2022-08-14T04:33:57;16;15;
74419;PMS5003;62855;50.718;-2.460;2022-08-14T04:35:17;16;16;
74419;PMS5003;62855;50.718;-2.460;2022-08-14T04:36:38;16;16;
74419;PMS5003;62855;50.718;-2.460;2022-08-14T04:37:59;17;16;
74419;PMS5003;62855;50.718;-2.460;2022-08-14T04:39:19;17;16;
74419;PMS5003;62855;50.718;-2.460;2022-08-14T04:40:40;18;17;
74419;PMS5003;62855;50.718;-2.460;2022-08-14T04:42:00;18;17;
74419;PMS5003;62855;50.718;-2.460;2022-08-14T04:43:21;17;16;
74419;PMS5003;62855;50.718;-2.460;2022-08-14T04:44:42;17;16;
74419;PMS5003;62855;50.718;-2.460;2022-08-14T04:46:02;17;16;
74419;PMS5003;62855;50.718;-2.460;2022-08-14T04:47:23;17;16;
74419;PMS5003;62855;50.718;-2.460;2022-08-14T04:48:44;17;16;
74419;PMS5003;62855;50.718;-2.460;2022-08-14T04:50:05;17;16;
74419;PMS5003;62855;50.718;-2.460;2022-08-14T04:51:06;17;16;
74419;PMS5003;62855;50.718;-2.460;2022-08-14T04:52:13;17;16;
74419;PMS5003;62855;50.718;-2.460;2022-08-14T04:53:34;17;16;
74419;PMS5003;62855;50.718;-2.460;2022-08-14T04:54:35;17;16;
74419;PMS5003;62855;50.718;-2.460;2022-08-14T04:55:56;17;15;
74419;PMS5003;62855;50.718;-2.460;2022-08-14T04:57:17;17;15;
74419;PMS5003;62855;50.718;-2.460;2022-08-14T04:58:38;17;16;
74419;PMS5003;62855;50.718;-2.460;2022-08-14T04:59:39;17;16;
74419;PMS5003;62855;50.718;-2.460;2022-08-14T05:00:43;17;16;
74419;PMS5003;62855;50.718;-2.460;2022-08-14T05:01:45;16;15;
74419;PMS5003;62855;50.718;-2.460;2022-08-14T05:03:06;16;15;
74419;PMS5003;62855;50.718;-2.460;2022-08-14T05:04:27;16;15;
74419;PMS5003;62855;50.718;-2.460;2022-08-14T05:05:47;16;15;
74419;PMS5003;62855;50.718;-2.460;2022-08-14T05:07:08;16;14;
74419;PMS5003;62855;50.718;-2.460;2022-08-14T05:08:29;16;14;
74419;PMS5003;62855;50.718;-2.460;2022-08-14T05:09:31;16;14;
74419;PMS5003;62855;50.718;-2.460;2022-08-14T05:10:53;16;14;
74419;PMS5003;62855;50.718;-2.460;2022-08-14T05:11:55;16;14;
74419;PMS5003;62855;50.718;-2.460;2022-08-14T05:13:16;17;15;
74419;PMS5003;62855;50.718;-2.460;2022-08-14T05:14:17;17;15;
74419;PMS5003;62855;50.718;-2.460;2022-08-14T05:15:18;17;15;
74419;PMS5003;62855;50.718;-2.460;2022-08-14T05:16:19;16;15;
74419;PMS5003;62855;50.718;-2.460;2022-08-14T05:17:40;16;15;
74419;PMS5003;62855;50.718;-2.460;2022-08-14T05:18:41;16;15;
74419;PMS5003;62855;50.718;-2.460;2022-08-14T05:20:02;16;15;
74419;PMS5003;62855;50.718;-2.460;2022-08-14T05:21:04;16;15;
74419;PMS5003;62855;50.718;-2.460;2022-08-14T05:22:06;16;15;
74419;PMS5003;62855;50.718;-2.460;2022-08-14T05:23:27;15;14;
74419;PMS5003;62855;50.718;-2.460;2022-08-14T05:24:29;15;14;
74419;PMS5003;62855;50.718;-2.460;2022-08-14T05:25:30;14;14;
74419;PMS5003;62855;50.718;-2.460;2022-08-14T05:26:51;15;15;
74419;PMS5003;62855;50.718;-2.460;2022-08-14T05:28:12;15;15;
74419;PMS5003;62855;50.718;-2.460;2022-08-14T05:29:14;14;14;
74419;PMS5003;62855;50.718;-2.460;2022-08-14T05:30:17;14;14;
74419;PMS5003;62855;50.718;-2.460;2022-08-14T05:31:19;14;14;
74419;PMS5003;62855;50.718;-2.460;2022-08-14T05:32:39;14;14;
74419;PMS5003;62855;50.718;-2.460;2022-08-14T05:34:00;14;14;
74419;PMS5003;62855;50.718;-2.460;2022-08-14T05:35:21;14;14;
74419;PMS5003;62855;50.718;-2.460;2022-08-14T05:36:41;14;14;
74419;PMS5003;62855;50.718;-2.460;2022-08-14T05:38:06;14;14;
74419;PMS5003;62855;50.718;-2.460;2022-08-14T05:39:07;14;14;
74419;PMS5003;62855;50.718;-2.460;2022-08-14T05:40:28;15;14;
74419;PMS5003;62855;50.718;-2.460;2022-08-14T05:41:48;15;14;
74419;PMS5003;62855;50.718;-2.460;2022-08-14T05:43:09;13;13;
74419;PMS5003;62855;50.718;-2.460;2022-08-14T05:44:30;13;13;
74419;PMS5003;62855;50.718;-2.460;2022-08-14T05:45:50;13;13;
74419;PMS5003;62855;50.718;-2.460;2022-08-14T05:47:11;13;13;
74419;PMS5003;62855;50.718;-2.460;2022-08-14T05:48:32;13;13;
74419;PMS5003;62855;50.718;-2.460;2022-08-14T05:49:52;13;13;
74419;PMS5003;62855;50.718;-2.460;2022-08-14T05:51:13;13;13;
74419;PMS5003;62855;50.718;-2.460;2022-08-14T05:52:34;13;13;
74419;PMS5003;62855;50.718;-2.460;2022-08-14T05:53:55;13;13;
74419;PMS5003;62855;50.718;-2.460;2022-08-14T05:55:16;12;12;
74419;PMS5003;62855;50.718;-2.460;2022-08-14T05:56:17;12;12;
74419;PMS5003;62855;50.718;-2.460;2022-08-14T05:57:45;13;13;
74419;PMS5003;62855;50.718;-2.460;2022-08-14T05:58:47;13;13;
74419;PMS5003;62855;50.718;-2.460;2022-08-14T06:00:11;13;13;
74419;PMS5003;62855;50.718;-2.460;2022-08-14T06:01:14;12;12;
74419;PMS5003;62855;50.718;-2.460;2022-08-14T06:02:34;12;12;
74419;PMS5003;62855;50.718;-2.460;2022-08-14T06:03:55;12;12;
74419;PMS5003;62855;50.718;-2.460;2022-08-14T06:05:16;12;12;
74419;PMS5003;62855;50.718;-2.460;2022-08-14T06:06:37;12;12;
74419;PMS5003;62855;50.718;-2.460;2022-08-14T06:07:57;13;13;
74419;PMS5003;62855;50.718;-2.460;2022-08-14T06:08:59;13;13;
74419;PMS5003;62855;50.718;-2.460;2022-08-14T06:10:19;13;13;
74419;PMS5003;62855;50.718;-2.460;2022-08-14T06:11:40;13;13;
74419;PMS5003;62855;50.718;-2.460;2022-08-14T06:13:01;13;13;
74419;PMS5003;62855;50.718;-2.460;2022-08-14T06:14:21;13;13;
74419;PMS5003;62855;50.718;-2.460;2022-08-14T06:15:42;13;13;
74419;PMS5003;62855;50.718;-2.460;2022-08-14T06:17:03;13;13;
74419;PMS5003;62855;50.718;-2.460;2022-08-14T06:18:24;13;13;
74419;PMS5003;62855;50.718;-2.460;2022-08-14T06:19:44;13;13;
74419;PMS5003;62855;50.718;-2.460;2022-08-14T06:21:05;13;13;
74419;PMS5003;62855;50.718;-2.460;2022-08-14T06:22:06;14;14;
74419;PMS5003;62855;50.718;-2.460;2022-08-14T06:23:27;14;14;
74419;PMS5003;62855;50.718;-2.460;2022-08-14T06:24:47;14;14;
74419;PMS5003;62855;50.718;-2.460;2022-08-14T06:26:09;14;14;
74419;PMS5003;62855;50.718;-2.460;2022-08-14T06:27:10;14;14;
74419;PMS5003;62855;50.718;-2.460;2022-08-14T06:28:30;14;14;
74419;PMS5003;62855;50.718;-2.460;2022-08-14T06:29:51;14;14;
74419;PMS5003;62855;50.718;-2.460;2022-08-14T06:30:56;14;14;
74419;PMS5003;62855;50.718;-2.460;2022-08-14T06:32:17;14;14;
74419;PMS5003;62855;50.718;-2.460;2022-08-14T06:33:37;14;14;
74419;PMS5003;62855;50.718;-2.460;2022-08-14T06:34:58;14;14;
74419;PMS5003;62855;50.718;-2.460;2022-08-14T06:36:18;14;14;
74419;PMS5003;62855;50.718;-2.460;2022-08-14T06:37:40;14;14;
74419;PMS5003;62855;50.718;-2.460;2022-08-14T06:38:42;14;14;
74419;PMS5003;62855;50.718;-2.460;2022-08-14T06:40:03;13;13;
74419;PMS5003;62855;50.718;-2.460;2022-08-14T06:41:04;13;13;
74419;PMS5003;62855;50.718;-2.460;2022-08-14T06:42:25;13;13;
74419;PMS5003;62855;50.718;-2.460;2022-08-14T06:43:45;13;13;
74419;PMS5003;62855;50.718;-2.460;2022-08-14T06:45:06;13;13;
74419;PMS5003;62855;50.718;-2.460;2022-08-14T06:46:08;13;13;
74419;PMS5003;62855;50.718;-2.460;2022-08-14T06:47:30;13;13;
74419;PMS5003;62855;50.718;-2.460;2022-08-14T06:52:14;12;12;
74419;PMS5003;62855;50.718;-2.460;2022-08-14T06:53:35;12;12;
74419;PMS5003;62855;50.718;-2.460;2022-08-14T06:54:56;12;12;
74419;PMS5003;62855;50.718;-2.460;2022-08-14T06:55:57;12;12;
74419;PMS5003;62855;50.718;-2.460;2022-08-14T06:57:17;11;11;
74419;PMS5003;62855;50.718;-2.460;2022-08-14T06:58:39;11;11;
74419;PMS5003;62855;50.718;-2.460;2022-08-14T06:59:40;11;11;
74419;PMS5003;62855;50.718;-2.460;2022-08-14T07:00:43;11;11;
74419;PMS5003;62855;50.718;-2.460;2022-08-14T07:01:46;11;11;
74419;PMS5003;62855;50.718;-2.460;2022-08-14T07:02:46;11;11;
74419;PMS5003;62855;50.718;-2.460;2022-08-14T07:04:07;12;11;
74419;PMS5003;62855;50.718;-2.460;2022-08-14T07:05:28;12;11;
74419;PMS5003;62855;50.718;-2.460;2022-08-14T07:06:49;12;11;
74419;PMS5003;62855;50.718;-2.460;2022-08-14T07:08:11;12;11;
74419;PMS5003;62855;50.718;-2.460;2022-08-14T07:09:12;12;11;
74419;PMS5003;62855;50.718;-2.460;2022-08-14T07:10:33;12;11;
74419;PMS5003;62855;50.718;-2.460;2022-08-14T07:11:54;11;10;
74419;PMS5003;62855;50.718;-2.460;2022-08-14T07:13:14;11;10;
74419;PMS5003;62855;50.718;-2.460;2022-08-14T07:14:16;11;10;
74419;PMS5003;62855;50.718;-2.460;2022-08-14T07:15:37;12;11;
74419;PMS5003;62855;50.718;-2.460;2022-08-14T07:16:58;12;11;
74419;PMS5003;62855;50.718;-2.460;2022-08-14T07:18:19;12;11;
74419;PMS5003;62855;50.718;-2.460;2022-08-14T07:19:21;12;11;
74419;PMS5003;62855;50.718;-2.460;2022-08-14T07:20:42;12;11;
74419;PMS5003;62855;50.718;-2.460;2022-08-14T07:22:03;12;11;
74419;PMS5003;62855;50.718;-2.460;2022-08-14T07:23:23;12;11;
74419;PMS5003;62855;50.718;-2.460;2022-08-14T07:24:44;12;11;
74419;PMS5003;62855;50.718;-2.460;2022-08-14T07:26:05;13;12;
74419;PMS5003;62855;50.718;-2.460;2022-08-14T07:27:06;13;13;
74419;PMS5003;62855;50.718;-2.460;2022-08-14T07:28:27;12;12;
74419;PMS5003;62855;50.718;-2.460;2022-08-14T07:29:29;12;12;
74419;PMS5003;62855;50.718;-2.460;2022-08-14T07:30:32;13;12;
74419;PMS5003;62855;50.718;-2.460;2022-08-14T07:31:33;13;12;
74419;PMS5003;62855;50.718;-2.460;2022-08-14T07:32:54;13;12;
74419;PMS5003;62855;50.718;-2.460;2022-08-14T07:34:15;13;13;
74419;PMS5003;62855;50.718;-2.460;2022-08-14T07:35:35;13;13;
74419;PMS5003;62855;50.718;-2.460;2022-08-14T07:36:37;13;13;
74419;PMS5003;62855;50.718;-2.460;2022-08-14T07:37:58;13;13;
74419;PMS5003;62855;50.718;-2.460;2022-08-14T07:39:19;14;14;
74419;PMS5003;62855;50.718;-2.460;2022-08-14T07:40:40;14;14;
74419;PMS5003;62855;50.718;-2.460;2022-08-14T07:45:18;12;12;
74419;PMS5003;62855;50.718;-2.460;2022-08-14T07:47:19;11;11;
74419;PMS5003;62855;50.718;-2.460;2022-08-14T07:49:20;11;10;
74419;PMS5003;62855;50.718;-2.460;2022-08-14T07:52:02;8;8;
74419;PMS5003;62855;50.718;-2.460;2022-08-14T07:54:04;9;9;
74419;PMS5003;62855;50.718;-2.460;2022-08-14T07:56:05;9;9;
74419;PMS5003;62855;50.718;-2.460;2022-08-14T07:58:06;9;9;
74419;PMS5003;62855;50.718;-2.460;2022-08-14T08:01:15;12;12;
74419;PMS5003;62855;50.718;-2.460;2022-08-14T08:03:17;12;12;
74419;PMS5003;62855;50.718;-2.460;2022-08-14T08:05:19;13;13;
74419;PMS5003;62855;50.718;-2.460;2022-08-14T08:07:21;11;11;
74419;PMS5003;62855;50.718;-2.460;2022-08-14T08:09:25;11;11;
74419;PMS5003;62855;50.718;-2.460;2022-08-14T08:11:29;11;11;
74419;PMS5003;62855;50.718;-2.460;2022-08-14T08:13:32;12;12;
74419;PMS5003;62855;50.718;-2.460;2022-08-14T08:15:34;12;12;
74419;PMS5003;62855;50.718;-2.460;2022-08-14T08:17:37;13;13;
74419;PMS5003;62855;50.718;-2.460;2022-08-14T08:19:38;13;13;
74419;PMS5003;62855;50.718;-2.460;2022-08-14T08:21:39;12;12;
74419;PMS5003;62855;50.718;-2.460;2022-08-14T08:23:40;12;12;
74419;PMS5003;62855;50.718;-2.460;2022-08-14T08:25:41;12;12;
74419;PMS5003;62855;50.718;-2.460;2022-08-14T08:32:04;11;11;
74419;PMS5003;62855;50.718;-2.460;2022-08-14T08:34:05;11;11;
74419;PMS5003;62855;50.718;-2.460;2022-08-14T08:36:06;11;11;
74419;PMS5003;62855;50.718;-2.460;2022-08-14T08:38:10;12;12;
74419;PMS5003;62855;50.718;-2.460;2022-08-14T08:42:23;12;12;